sensor_id;sensor_type;location;lat;lon;timestamp;temperature;humidity
60353;DHT22;46196;52.970;6.954;2023-03-21T00:00:59;9.20;99.90
60353;DHT22;46196;52.970;6.954;2023-03-21T00:03:28;9.20;99.90
60353;DHT22;46196;52.970;6.954;2023-03-21T00:05:54;9.30;99.90
60353;DHT22;46196;52.970;6.954;2023-03-21T00:08:22;9.20;99.90
60353;DHT22;46196;52.970;6.954;2023-03-21T00:10:59;9.30;99.90
60353;DHT22;46196;52.970;6.954;2023-03-21T00:13:27;9.20;99.90
60353;DHT22;46196;52.970;6.954;2023-03-21T00:16:04;9.30;99.90
60353;DHT22;46196;52.970;6.954;2023-03-21T00:18:30;9.20;99.90
60353;DHT22;46196;52.970;6.954;2023-03-21T00:21:03;9.20;99.90
60353;DHT22;46196;52.970;6.954;2023-03-21T00:23:30;9.20;99.90
60353;DHT22;46196;52.970;6.954;2023-03-21T00:25:57;9.20;99.90
60353;DHT22;46196;52.970;6.954;2023-03-21T00:28:23;9.20;99.90
60353;DHT22;46196;52.970;6.954;2023-03-21T00:30:49;9.20;99.90
60353;DHT22;46196;52.970;6.954;2023-03-21T00:33:15;9.30;99.90
60353;DHT22;46196;52.970;6.954;2023-03-21T00:35:45;9.20;99.90
60353;DHT22;46196;52.970;6.954;2023-03-21T00:38:14;9.30;99.90
60353;DHT22;46196;52.970;6.954;2023-03-21T00:40:40;9.30;99.90
60353;DHT22;46196;52.970;6.954;2023-03-21T00:43:06;9.30;99.90
60353;DHT22;46196;52.970;6.954;2023-03-21T00:45:32;9.30;99.90
60353;DHT22;46196;52.970;6.954;2023-03-21T00:47:58;9.30;99.90
60353;DHT22;46196;52.970;6.954;2023-03-21T00:50:24;9.30;99.90
60353;DHT22;46196;52.970;6.954;2023-03-21T00:52:50;9.30;99.90
60353;DHT22;46196;52.970;6.954;2023-03-21T00:55:17;9.30;99.90
60353;DHT22;46196;52.970;6.954;2023-03-21T00:57:43;9.40;99.90
60353;DHT22;46196;52.970;6.954;2023-03-21T01:00:12;9.60;99.90
60353;DHT22;46196;52.970;6.954;2023-03-21T01:02:38;9.40;99.90
60353;DHT22;46196;52.970;6.954;2023-03-21T01:05:08;9.40;99.90
60353;DHT22;46196;52.970;6.954;2023-03-21T01:07:34;9.40;99.90
60353;DHT22;46196;52.970;6.954;2023-03-21T01:10:00;9.40;99.90
60353;DHT22;46196;52.970;6.954;2023-03-21T01:12:26;9.40;99.90
60353;DHT22;46196;52.970;6.954;2023-03-21T01:14:52;9.40;99.90
60353;DHT22;46196;52.970;6.954;2023-03-21T01:17:18;9.40;99.90
60353;DHT22;46196;52.970;6.954;2023-03-21T01:19:44;9.40;99.90
60353;DHT22;46196;52.970;6.954;2023-03-21T01:22:10;9.50;99.90
60353;DHT22;46196;52.970;6.954;2023-03-21T01:24:36;9.50;99.90
60353;DHT22;46196;52.970;6.954;2023-03-21T01:27:02;9.50;99.90
60353;DHT22;46196;52.970;6.954;2023-03-21T01:29:28;9.50;99.90
60353;DHT22;46196;52.970;6.954;2023-03-21T01:31:54;9.50;99.90
60353;DHT22;46196;52.970;6.954;2023-03-21T01:34:20;9.50;99.90
60353;DHT22;46196;52.970;6.954;2023-03-21T01:36:46;9.50;99.90
60353;DHT22;46196;52.970;6.954;2023-03-21T01:39:12;9.50;99.90
60353;DHT22;46196;52.970;6.954;2023-03-21T01:41:41;9.50;99.90
60353;DHT22;46196;52.970;6.954;2023-03-21T01:44:08;9.50;99.90
60353;DHT22;46196;52.970;6.954;2023-03-21T01:46:40;9.50;99.90
60353;DHT22;46196;52.970;6.954;2023-03-21T01:51:38;9.50;99.90
60353;DHT22;46196;52.970;6.954;2023-03-21T01:54:09;9.50;99.90
60353;DHT22;46196;52.970;6.954;2023-03-21T01:56:38;9.50;99.90
60353;DHT22;46196;52.970;6.954;2023-03-21T01:59:09;9.50;99.90
60353;DHT22;46196;52.970;6.954;2023-03-21T02:01:36;9.50;99.90
60353;DHT22;46196;52.970;6.954;2023-03-21T02:04:03;9.50;99.90
60353;DHT22;46196;52.970;6.954;2023-03-21T02:09:11;9.50;99.90
60353;DHT22;46196;52.970;6.954;2023-03-21T02:11:37;9.50;99.90
60353;DHT22;46196;52.970;6.954;2023-03-21T02:14:03;9.50;99.90
60353;DHT22;46196;52.970;6.954;2023-03-21T02:16:50;9.80;99.90
60353;DHT22;46196;52.970;6.954;2023-03-21T02:27:17;9.50;99.90
60353;DHT22;46196;52.970;6.954;2023-03-21T02:30:12;10.80;99.90
60353;DHT22;46196;52.970;6.954;2023-03-21T02:41:01;9.60;99.90
60353;DHT22;46196;52.970;6.954;2023-03-21T02:43:53;9.60;99.90
60353;DHT22;46196;52.970;6.954;2023-03-21T02:46:25;9.60;99.90
60353;DHT22;46196;52.970;6.954;2023-03-21T02:49:05;9.60;99.90
60353;DHT22;46196;52.970;6.954;2023-03-21T02:51:32;9.60;99.90
60353;DHT22;46196;52.970;6.954;2023-03-21T02:54:05;9.60;99.90
60353;DHT22;46196;52.970;6.954;2023-03-21T02:56:32;9.60;99.90
60353;DHT22;46196;52.970;6.954;2023-03-21T02:59:00;9.60;99.90
60353;DHT22;46196;52.970;6.954;2023-03-21T03:01:28;9.70;99.90
60353;DHT22;46196;52.970;6.954;2023-03-21T03:03:54;9.70;99.90
60353;DHT22;46196;52.970;6.954;2023-03-21T03:06:26;9.60;99.90
60353;DHT22;46196;52.970;6.954;2023-03-21T03:11:42;9.70;99.90
60353;DHT22;46196;52.970;6.954;2023-03-21T03:14:36;9.60;99.90
60353;DHT22;46196;52.970;6.954;2023-03-21T03:20:32;9.60;99.90
60353;DHT22;46196;52.970;6.954;2023-03-21T03:23:25;9.60;99.90
60353;DHT22;46196;52.970;6.954;2023-03-21T03:26:03;9.70;99.90
60353;DHT22;46196;52.970;6.954;2023-03-21T03:28:36;9.60;99.90
60353;DHT22;46196;52.970;6.954;2023-03-21T03:31:03;9.60;99.90
60353;DHT22;46196;52.970;6.954;2023-03-21T03:33:32;9.70;99.90
60353;DHT22;46196;52.970;6.954;2023-03-21T03:35:59;9.70;99.90
60353;DHT22;46196;52.970;6.954;2023-03-21T03:38:26;10.10;99.90
60353;DHT22;46196;52.970;6.954;2023-03-21T03:40:57;9.70;99.90
60353;DHT22;46196;52.970;6.954;2023-03-21T03:43:34;9.70;99.90
60353;DHT22;46196;52.970;6.954;2023-03-21T03:46:17;9.70;99.90
60353;DHT22;46196;52.970;6.954;2023-03-21T03:48:49;9.60;99.90
60353;DHT22;46196;52.970;6.954;2023-03-21T03:51:35;9.70;99.90
60353;DHT22;46196;52.970;6.954;2023-03-21T03:54:06;9.70;99.90
60353;DHT22;46196;52.970;6.954;2023-03-21T03:56:33;9.70;99.90
60353;DHT22;46196;52.970;6.954;2023-03-21T03:59:01;9.60;99.90
60353;DHT22;46196;52.970;6.954;2023-03-21T04:01:29;9.70;99.90
60353;DHT22;46196;52.970;6.954;2023-03-21T04:03:54;9.70;99.90
60353;DHT22;46196;52.970;6.954;2023-03-21T04:06:20;9.70;99.90
60353;DHT22;46196;52.970;6.954;2023-03-21T04:08:47;9.70;99.90
60353;DHT22;46196;52.970;6.954;2023-03-21T04:11:13;9.70;99.90
60353;DHT22;46196;52.970;6.954;2023-03-21T04:13:42;9.70;99.90
60353;DHT22;46196;52.970;6.954;2023-03-21T04:16:08;9.70;99.90
60353;DHT22;46196;52.970;6.954;2023-03-21T04:18:36;9.60;99.90
60353;DHT22;46196;52.970;6.954;2023-03-21T04:21:09;9.70;99.90
60353;DHT22;46196;52.970;6.954;2023-03-21T04:23:38;9.70;99.90
60353;DHT22;46196;52.970;6.954;2023-03-21T04:26:04;9.60;99.90
60353;DHT22;46196;52.970;6.954;2023-03-21T04:28:31;9.60;99.90
60353;DHT22;46196;52.970;6.954;2023-03-21T04:30:58;9.60;99.90
60353;DHT22;46196;52.970;6.954;2023-03-21T04:33:24;9.60;99.90
60353;DHT22;46196;52.970;6.954;2023-03-21T04:35:53;9.60;99.90
60353;DHT22;46196;52.970;6.954;2023-03-21T04:38:24;9.60;99.90
60353;DHT22;46196;52.970;6.954;2023-03-21T04:40:56;9.60;99.90
60353;DHT22;46196;52.970;6.954;2023-03-21T04:43:22;9.60;99.90
60353;DHT22;46196;52.970;6.954;2023-03-21T04:45:49;9.60;99.90
60353;DHT22;46196;52.970;6.954;2023-03-21T04:48:15;9.60;99.90
60353;DHT22;46196;52.970;6.954;2023-03-21T04:50:43;9.60;99.90
60353;DHT22;46196;52.970;6.954;2023-03-21T04:53:09;9.60;99.90
60353;DHT22;46196;52.970;6.954;2023-03-21T04:55:35;9.60;99.90
60353;DHT22;46196;52.970;6.954;2023-03-21T04:58:03;9.60;99.90
60353;DHT22;46196;52.970;6.954;2023-03-21T05:00:29;9.60;99.90
60353;DHT22;46196;52.970;6.954;2023-03-21T05:02:56;9.60;99.90
60353;DHT22;46196;52.970;6.954;2023-03-21T05:05:23;9.60;99.90
60353;DHT22;46196;52.970;6.954;2023-03-21T05:07:49;9.60;99.90
60353;DHT22;46196;52.970;6.954;2023-03-21T05:10:15;9.70;99.90
60353;DHT22;46196;52.970;6.954;2023-03-21T05:12:41;10.00;99.90
60353;DHT22;46196;52.970;6.954;2023-03-21T05:15:08;9.60;99.90
60353;DHT22;46196;52.970;6.954;2023-03-21T05:17:34;9.60;99.90
60353;DHT22;46196;52.970;6.954;2023-03-21T05:20:01;9.60;99.90
60353;DHT22;46196;52.970;6.954;2023-03-21T05:22:27;9.60;99.90
60353;DHT22;46196;52.970;6.954;2023-03-21T05:24:53;9.60;99.90
60353;DHT22;46196;52.970;6.954;2023-03-21T05:27:21;9.60;99.90
60353;DHT22;46196;52.970;6.954;2023-03-21T05:30:12;9.60;99.90
60353;DHT22;46196;52.970;6.954;2023-03-21T05:32:38;9.60;99.90
60353;DHT22;46196;52.970;6.954;2023-03-21T05:35:04;9.60;99.90
60353;DHT22;46196;52.970;6.954;2023-03-21T05:37:30;9.50;99.90
60353;DHT22;46196;52.970;6.954;2023-03-21T05:39:56;9.60;99.90
60353;DHT22;46196;52.970;6.954;2023-03-21T05:42:22;9.50;99.90
60353;DHT22;46196;52.970;6.954;2023-03-21T05:44:48;9.50;99.90
60353;DHT22;46196;52.970;6.954;2023-03-21T05:47:15;9.50;99.90
60353;DHT22;46196;52.970;6.954;2023-03-21T05:49:41;9.50;99.90
60353;DHT22;46196;52.970;6.954;2023-03-21T05:52:07;9.50;99.90
60353;DHT22;46196;52.970;6.954;2023-03-21T05:54:33;9.50;99.90
60353;DHT22;46196;52.970;6.954;2023-03-21T05:56:59;9.50;99.90
60353;DHT22;46196;52.970;6.954;2023-03-21T05:59:25;9.50;99.90
60353;DHT22;46196;52.970;6.954;2023-03-21T06:01:51;9.50;99.90
60353;DHT22;46196;52.970;6.954;2023-03-21T06:04:17;9.50;99.90
60353;DHT22;46196;52.970;6.954;2023-03-21T06:06:43;9.50;99.90
60353;DHT22;46196;52.970;6.954;2023-03-21T06:09:09;9.50;99.90
60353;DHT22;46196;52.970;6.954;2023-03-21T06:11:36;9.40;99.90
60353;DHT22;46196;52.970;6.954;2023-03-21T06:14:03;9.50;99.90
60353;DHT22;46196;52.970;6.954;2023-03-21T06:16:29;9.40;99.90
60353;DHT22;46196;52.970;6.954;2023-03-21T06:18:55;9.40;99.90
60353;DHT22;46196;52.970;6.954;2023-03-21T06:21:21;9.40;99.90
60353;DHT22;46196;52.970;6.954;2023-03-21T06:23:47;9.50;99.90
60353;DHT22;46196;52.970;6.954;2023-03-21T06:26:16;9.40;99.90
60353;DHT22;46196;52.970;6.954;2023-03-21T06:28:48;9.50;99.90
60353;DHT22;46196;52.970;6.954;2023-03-21T06:31:14;9.50;99.90
60353;DHT22;46196;52.970;6.954;2023-03-21T06:33:40;9.50;99.90
60353;DHT22;46196;52.970;6.954;2023-03-21T06:36:06;9.50;99.90
60353;DHT22;46196;52.970;6.954;2023-03-21T06:38:32;9.50;99.90
60353;DHT22;46196;52.970;6.954;2023-03-21T06:40:58;9.50;99.90
60353;DHT22;46196;52.970;6.954;2023-03-21T06:43:24;9.50;99.90
60353;DHT22;46196;52.970;6.954;2023-03-21T06:45:53;9.50;99.90
60353;DHT22;46196;52.970;6.954;2023-03-21T06:48:31;9.50;99.90
60353;DHT22;46196;52.970;6.954;2023-03-21T06:51:01;9.50;99.90
60353;DHT22;46196;52.970;6.954;2023-03-21T06:53:33;9.50;99.90
60353;DHT22;46196;52.970;6.954;2023-03-21T06:55:58;9.50;99.90
60353;DHT22;46196;52.970;6.954;2023-03-21T06:58:24;10.90;99.90
60353;DHT22;46196;52.970;6.954;2023-03-21T07:00:50;9.50;99.90
60353;DHT22;46196;52.970;6.954;2023-03-21T07:03:16;9.50;99.90
60353;DHT22;46196;52.970;6.954;2023-03-21T07:05:42;9.50;99.90
60353;DHT22;46196;52.970;6.954;2023-03-21T07:08:08;8.80;99.90
60353;DHT22;46196;52.970;6.954;2023-03-21T07:10:53;9.60;99.90
60353;DHT22;46196;52.970;6.954;2023-03-21T07:13:20;9.60;99.90
60353;DHT22;46196;52.970;6.954;2023-03-21T07:16:05;9.60;99.90
60353;DHT22;46196;52.970;6.954;2023-03-21T07:18:58;9.60;99.90
60353;DHT22;46196;52.970;6.954;2023-03-21T07:21:28;9.60;99.90
60353;DHT22;46196;52.970;6.954;2023-03-21T07:24:00;9.60;99.90
60353;DHT22;46196;52.970;6.954;2023-03-21T07:26:27;9.60;99.90
60353;DHT22;46196;52.970;6.954;2023-03-21T07:28:56;9.60;99.90
60353;DHT22;46196;52.970;6.954;2023-03-21T07:34:07;9.60;99.90
60353;DHT22;46196;52.970;6.954;2023-03-21T07:36:33;9.60;99.90
60353;DHT22;46196;52.970;6.954;2023-03-21T07:38:59;9.70;99.90
60353;DHT22;46196;52.970;6.954;2023-03-21T07:41:25;9.70;99.90
60353;DHT22;46196;52.970;6.954;2023-03-21T07:43:51;9.70;99.90
60353;DHT22;46196;52.970;6.954;2023-03-21T07:46:17;9.80;99.90
60353;DHT22;46196;52.970;6.954;2023-03-21T07:48:43;9.80;99.90
60353;DHT22;46196;52.970;6.954;2023-03-21T07:51:09;9.80;99.90
60353;DHT22;46196;52.970;6.954;2023-03-21T07:53:35;9.80;99.90
60353;DHT22;46196;52.970;6.954;2023-03-21T07:56:01;9.80;99.90
60353;DHT22;46196;52.970;6.954;2023-03-21T07:58:30;9.80;99.90
60353;DHT22;46196;52.970;6.954;2023-03-21T08:00:59;9.80;99.90
60353;DHT22;46196;52.970;6.954;2023-03-21T08:03:25;9.90;99.90
60353;DHT22;46196;52.970;6.954;2023-03-21T08:05:54;9.90;99.90
60353;DHT22;46196;52.970;6.954;2023-03-21T08:08:20;9.90;99.90
60353;DHT22;46196;52.970;6.954;2023-03-21T08:10:46;9.90;99.90
60353;DHT22;46196;52.970;6.954;2023-03-21T08:13:15;9.40;99.90
60353;DHT22;46196;52.970;6.954;2023-03-21T08:15:41;9.90;99.90
60353;DHT22;46196;52.970;6.954;2023-03-21T08:18:09;9.90;99.90
60353;DHT22;46196;52.970;6.954;2023-03-21T08:20:38;9.90;99.90
60353;DHT22;46196;52.970;6.954;2023-03-21T08:23:04;9.90;99.90
60353;DHT22;46196;52.970;6.954;2023-03-21T08:25:30;9.90;99.90
60353;DHT22;46196;52.970;6.954;2023-03-21T08:27:57;9.90;99.90
60353;DHT22;46196;52.970;6.954;2023-03-21T08:30:27;9.90;99.90
60353;DHT22;46196;52.970;6.954;2023-03-21T08:32:58;9.90;99.90
60353;DHT22;46196;52.970;6.954;2023-03-21T08:35:24;9.90;99.90
60353;DHT22;46196;52.970;6.954;2023-03-21T08:37:50;9.80;99.90
60353;DHT22;46196;52.970;6.954;2023-03-21T08:40:17;9.80;99.90
60353;DHT22;46196;52.970;6.954;2023-03-21T08:42:44;9.80;99.90
60353;DHT22;46196;52.970;6.954;2023-03-21T08:45:11;9.80;99.90
60353;DHT22;46196;52.970;6.954;2023-03-21T08:47:38;9.80;99.90
60353;DHT22;46196;52.970;6.954;2023-03-21T08:50:12;9.80;99.90
60353;DHT22;46196;52.970;6.954;2023-03-21T08:52:40;9.80;99.90
60353;DHT22;46196;52.970;6.954;2023-03-21T08:55:07;9.80;99.90
60353;DHT22;46196;52.970;6.954;2023-03-21T08:57:33;9.90;99.90
60353;DHT22;46196;52.970;6.954;2023-03-21T08:59:59;9.90;99.90
60353;DHT22;46196;52.970;6.954;2023-03-21T09:02:25;9.90;99.90
60353;DHT22;46196;52.970;6.954;2023-03-21T09:04:51;9.90;99.90
60353;DHT22;46196;52.970;6.954;2023-03-21T09:07:23;9.90;99.90
60353;DHT22;46196;52.970;6.954;2023-03-21T09:09:51;9.90;99.90
60353;DHT22;46196;52.970;6.954;2023-03-21T09:12:18;10.80;99.90
60353;DHT22;46196;52.970;6.954;2023-03-21T09:14:44;10.00;99.90
60353;DHT22;46196;52.970;6.954;2023-03-21T09:17:13;10.00;99.90
60353;DHT22;46196;52.970;6.954;2023-03-21T09:19:39;10.00;99.90
60353;DHT22;46196;52.970;6.954;2023-03-21T09:22:09;10.00;99.90
60353;DHT22;46196;52.970;6.954;2023-03-21T09:24:44;10.00;99.90
60353;DHT22;46196;52.970;6.954;2023-03-21T09:27:15;10.00;99.90
60353;DHT22;46196;52.970;6.954;2023-03-21T09:29:50;10.00;99.90
60353;DHT22;46196;52.970;6.954;2023-03-21T09:32:16;10.00;99.90
60353;DHT22;46196;52.970;6.954;2023-03-21T09:34:45;10.00;99.90
60353;DHT22;46196;52.970;6.954;2023-03-21T09:37:13;10.00;99.90
60353;DHT22;46196;52.970;6.954;2023-03-21T09:39:41;10.00;99.90
60353;DHT22;46196;52.970;6.954;2023-03-21T09:42:09;10.00;99.90
60353;DHT22;46196;52.970;6.954;2023-03-21T09:45:19;10.00;99.90
60353;DHT22;46196;52.970;6.954;2023-03-21T09:47:47;10.00;99.90
60353;DHT22;46196;52.970;6.954;2023-03-21T09:53:21;10.00;99.90
60353;DHT22;46196;52.970;6.954;2023-03-21T09:55:49;9.90;99.90
60353;DHT22;46196;52.970;6.954;2023-03-21T09:58:28;11.10;99.90
60353;DHT22;46196;52.970;6.954;2023-03-21T10:01:26;9.90;99.90
60353;DHT22;46196;52.970;6.954;2023-03-21T10:04:07;9.90;99.90
60353;DHT22;46196;52.970;6.954;2023-03-21T10:06:40;9.90;99.90
60353;DHT22;46196;52.970;6.954;2023-03-21T10:09:14;9.90;99.90
60353;DHT22;46196;52.970;6.954;2023-03-21T10:11:48;9.90;99.90
60353;DHT22;46196;52.970;6.954;2023-03-21T10:14:27;10.00;99.90
60353;DHT22;46196;52.970;6.954;2023-03-21T10:17:17;10.00;99.90
60353;DHT22;46196;52.970;6.954;2023-03-21T10:19:56;10.10;99.90
60353;DHT22;46196;52.970;6.954;2023-03-21T10:22:38;10.00;99.90
60353;DHT22;46196;52.970;6.954;2023-03-21T10:25:05;10.10;99.90
60353;DHT22;46196;52.970;6.954;2023-03-21T10:27:33;8.50;99.90
60353;DHT22;46196;52.970;6.954;2023-03-21T10:30:02;10.00;99.90
60353;DHT22;46196;52.970;6.954;2023-03-21T10:32:34;10.00;99.90
60353;DHT22;46196;52.970;6.954;2023-03-21T10:35:01;10.00;99.90
60353;DHT22;46196;52.970;6.954;2023-03-21T10:37:30;10.00;99.90
60353;DHT22;46196;52.970;6.954;2023-03-21T10:40:03;10.10;99.90
60353;DHT22;46196;52.970;6.954;2023-03-21T10:42:32;10.10;99.90
60353;DHT22;46196;52.970;6.954;2023-03-21T10:45:00;10.10;99.90
60353;DHT22;46196;52.970;6.954;2023-03-21T10:47:33;10.10;99.90
60353;DHT22;46196;52.970;6.954;2023-03-21T10:50:06;10.20;99.90
60353;DHT22;46196;52.970;6.954;2023-03-21T10:52:34;10.20;99.90
60353;DHT22;46196;52.970;6.954;2023-03-21T10:55:28;10.20;99.90
60353;DHT22;46196;52.970;6.954;2023-03-21T10:58:06;10.30;99.90
60353;DHT22;46196;52.970;6.954;2023-03-21T11:00:40;10.00;99.90
60353;DHT22;46196;52.970;6.954;2023-03-21T11:03:26;10.30;99.90
60353;DHT22;46196;52.970;6.954;2023-03-21T11:06:17;10.30;99.90
60353;DHT22;46196;52.970;6.954;2023-03-21T11:08:54;10.30;99.90
60353;DHT22;46196;52.970;6.954;2023-03-21T11:11:36;10.30;99.90
60353;DHT22;46196;52.970;6.954;2023-03-21T11:14:06;10.30;99.90
60353;DHT22;46196;52.970;6.954;2023-03-21T11:16:40;10.30;99.90
60353;DHT22;46196;52.970;6.954;2023-03-21T11:19:25;10.40;99.90
60353;DHT22;46196;52.970;6.954;2023-03-21T11:21:56;10.30;99.90
60353;DHT22;46196;52.970;6.954;2023-03-21T11:24:27;10.30;99.90
60353;DHT22;46196;52.970;6.954;2023-03-21T11:26:55;10.40;99.90
60353;DHT22;46196;52.970;6.954;2023-03-21T11:29:28;10.40;99.90
60353;DHT22;46196;52.970;6.954;2023-03-21T11:32:09;10.50;99.90
60353;DHT22;46196;52.970;6.954;2023-03-21T11:35:00;10.50;99.90
60353;DHT22;46196;52.970;6.954;2023-03-21T11:37:31;10.60;99.90
60353;DHT22;46196;52.970;6.954;2023-03-21T11:40:30;10.20;99.90
60353;DHT22;46196;52.970;6.954;2023-03-21T11:43:29;10.80;99.90
60353;DHT22;46196;52.970;6.954;2023-03-21T11:46:04;10.90;99.90
60353;DHT22;46196;52.970;6.954;2023-03-21T11:48:46;10.90;99.90
60353;DHT22;46196;52.970;6.954;2023-03-21T11:51:23;11.00;99.90
60353;DHT22;46196;52.970;6.954;2023-03-21T11:57:14;11.10;99.90
60353;DHT22;46196;52.970;6.954;2023-03-21T12:00:21;11.20;99.90
60353;DHT22;46196;52.970;6.954;2023-03-21T12:05:53;11.30;99.90
60353;DHT22;46196;52.970;6.954;2023-03-21T12:11:36;11.30;99.90
60353;DHT22;46196;52.970;6.954;2023-03-21T12:19:32;11.40;99.90
60353;DHT22;46196;52.970;6.954;2023-03-21T12:25:43;11.40;99.90
60353;DHT22;46196;52.970;6.954;2023-03-21T12:30:26;11.40;99.90
60353;DHT22;46196;52.970;6.954;2023-03-21T12:41:33;11.60;99.90
60353;DHT22;46196;52.970;6.954;2023-03-21T12:44:08;11.70;99.90
60353;DHT22;46196;52.970;6.954;2023-03-21T12:52:05;11.70;99.90
60353;DHT22;46196;52.970;6.954;2023-03-21T13:00:14;11.60;99.90
60353;DHT22;46196;52.970;6.954;2023-03-21T13:03:02;11.50;99.90
60353;DHT22;46196;52.970;6.954;2023-03-21T13:05:43;11.50;99.90
60353;DHT22;46196;52.970;6.954;2023-03-21T13:10:47;11.50;99.90
60353;DHT22;46196;52.970;6.954;2023-03-21T13:16:08;11.50;99.90
60353;DHT22;46196;52.970;6.954;2023-03-21T13:21:49;11.50;99.90
60353;DHT22;46196;52.970;6.954;2023-03-21T13:24:24;11.60;99.90
60353;DHT22;46196;52.970;6.954;2023-03-21T13:29:31;11.60;99.90
60353;DHT22;46196;52.970;6.954;2023-03-21T13:32:16;11.60;99.90
60353;DHT22;46196;52.970;6.954;2023-03-21T13:34:44;11.60;99.90
60353;DHT22;46196;52.970;6.954;2023-03-21T13:37:19;11.70;99.90
60353;DHT22;46196;52.970;6.954;2023-03-21T13:39:48;11.80;99.90
60353;DHT22;46196;52.970;6.954;2023-03-21T13:42:20;11.90;99.90
60353;DHT22;46196;52.970;6.954;2023-03-21T13:44:52;12.00;99.90
60353;DHT22;46196;52.970;6.954;2023-03-21T13:47:41;12.00;99.90
60353;DHT22;46196;52.970;6.954;2023-03-21T13:50:20;12.10;99.90
60353;DHT22;46196;52.970;6.954;2023-03-21T13:53:19;12.30;99.90
60353;DHT22;46196;52.970;6.954;2023-03-21T13:55:57;12.40;99.90
60353;DHT22;46196;52.970;6.954;2023-03-21T13:58:38;12.50;99.90
60353;DHT22;46196;52.970;6.954;2023-03-21T14:04:16;12.60;99.90
60353;DHT22;46196;52.970;6.954;2023-03-21T14:12:01;12.60;99.90
60353;DHT22;46196;52.970;6.954;2023-03-21T14:14:48;12.50;99.90
60353;DHT22;46196;52.970;6.954;2023-03-21T14:17:28;12.50;99.90
60353;DHT22;46196;52.970;6.954;2023-03-21T14:19:55;12.40;99.90
60353;DHT22;46196;52.970;6.954;2023-03-21T14:22:22;12.40;99.90
60353;DHT22;46196;52.970;6.954;2023-03-21T14:24:56;12.40;99.90
60353;DHT22;46196;52.970;6.954;2023-03-21T14:27:24;12.40;99.90
60353;DHT22;46196;52.970;6.954;2023-03-21T14:29:51;12.40;99.90
60353;DHT22;46196;52.970;6.954;2023-03-21T14:32:22;12.40;99.90
60353;DHT22;46196;52.970;6.954;2023-03-21T14:34:53;12.50;99.90
60353;DHT22;46196;52.970;6.954;2023-03-21T14:37:38;12.40;99.90
60353;DHT22;46196;52.970;6.954;2023-03-21T14:40:24;12.40;99.90
60353;DHT22;46196;52.970;6.954;2023-03-21T14:42:51;12.40;99.90
60353;DHT22;46196;52.970;6.954;2023-03-21T14:45:26;12.40;99.90
60353;DHT22;46196;52.970;6.954;2023-03-21T14:47:59;12.40;99.90
60353;DHT22;46196;52.970;6.954;2023-03-21T14:53:01;13.00;99.90
60353;DHT22;46196;52.970;6.954;2023-03-21T14:55:30;12.40;99.90
60353;DHT22;46196;52.970;6.954;2023-03-21T14:57:56;12.50;99.90
60353;DHT22;46196;52.970;6.954;2023-03-21T15:00:26;12.60;99.90
60353;DHT22;46196;52.970;6.954;2023-03-21T15:02:52;12.80;99.90
60353;DHT22;46196;52.970;6.954;2023-03-21T15:05:34;13.00;99.90
60353;DHT22;46196;52.970;6.954;2023-03-21T15:08:07;13.20;99.90
60353;DHT22;46196;52.970;6.954;2023-03-21T15:10:34;13.20;99.90
60353;DHT22;46196;52.970;6.954;2023-03-21T15:13:11;13.20;99.90
60353;DHT22;46196;52.970;6.954;2023-03-21T15:15:41;13.60;99.90
60353;DHT22;46196;52.970;6.954;2023-03-21T15:18:12;13.10;99.90
60353;DHT22;46196;52.970;6.954;2023-03-21T15:20:40;13.10;99.90
60353;DHT22;46196;52.970;6.954;2023-03-21T15:23:12;13.00;99.90
60353;DHT22;46196;52.970;6.954;2023-03-21T15:25:40;12.90;99.90
60353;DHT22;46196;52.970;6.954;2023-03-21T15:28:06;12.90;99.90
60353;DHT22;46196;52.970;6.954;2023-03-21T15:30:35;12.90;99.90
60353;DHT22;46196;52.970;6.954;2023-03-21T15:33:08;12.90;99.90
60353;DHT22;46196;52.970;6.954;2023-03-21T15:35:39;12.90;99.90
60353;DHT22;46196;52.970;6.954;2023-03-21T15:38:19;12.90;99.90
60353;DHT22;46196;52.970;6.954;2023-03-21T15:40:48;12.90;99.90
60353;DHT22;46196;52.970;6.954;2023-03-21T15:43:18;12.90;99.90
60353;DHT22;46196;52.970;6.954;2023-03-21T15:45:49;12.90;99.90
60353;DHT22;46196;52.970;6.954;2023-03-21T15:48:27;12.90;99.90
60353;DHT22;46196;52.970;6.954;2023-03-21T15:51:02;12.80;99.90
60353;DHT22;46196;52.970;6.954;2023-03-21T15:53:32;12.00;99.90
60353;DHT22;46196;52.970;6.954;2023-03-21T15:55:59;12.70;99.90
60353;DHT22;46196;52.970;6.954;2023-03-21T15:58:35;12.70;99.90
60353;DHT22;46196;52.970;6.954;2023-03-21T16:01:06;12.60;99.90
60353;DHT22;46196;52.970;6.954;2023-03-21T16:03:37;12.60;99.90
60353;DHT22;46196;52.970;6.954;2023-03-21T16:06:20;12.60;99.90
60353;DHT22;46196;52.970;6.954;2023-03-21T16:11:24;12.50;99.90
60353;DHT22;46196;52.970;6.954;2023-03-21T16:13:52;12.50;99.90
60353;DHT22;46196;52.970;6.954;2023-03-21T16:16:21;12.50;99.90
60353;DHT22;46196;52.970;6.954;2023-03-21T16:18:48;12.50;99.90
60353;DHT22;46196;52.970;6.954;2023-03-21T16:21:17;12.50;99.90
60353;DHT22;46196;52.970;6.954;2023-03-21T16:23:44;12.50;99.90
60353;DHT22;46196;52.970;6.954;2023-03-21T16:26:16;12.50;99.90
60353;DHT22;46196;52.970;6.954;2023-03-21T16:28:44;12.50;99.90
60353;DHT22;46196;52.970;6.954;2023-03-21T16:31:16;12.50;99.90
60353;DHT22;46196;52.970;6.954;2023-03-21T16:33:43;12.40;99.90
60353;DHT22;46196;52.970;6.954;2023-03-21T16:38:44;12.50;99.90
60353;DHT22;46196;52.970;6.954;2023-03-21T16:41:12;12.50;99.90
60353;DHT22;46196;52.970;6.954;2023-03-21T16:43:39;12.40;99.90
60353;DHT22;46196;52.970;6.954;2023-03-21T16:46:22;12.40;99.90
60353;DHT22;46196;52.970;6.954;2023-03-21T16:48:50;12.00;99.90
60353;DHT22;46196;52.970;6.954;2023-03-21T16:51:19;12.40;99.90
60353;DHT22;46196;52.970;6.954;2023-03-21T16:53:46;12.40;99.90
60353;DHT22;46196;52.970;6.954;2023-03-21T16:56:18;12.50;99.90
60353;DHT22;46196;52.970;6.954;2023-03-21T16:58:44;12.40;99.90
60353;DHT22;46196;52.970;6.954;2023-03-21T17:01:16;12.40;99.90
60353;DHT22;46196;52.970;6.954;2023-03-21T17:03:45;12.40;99.90
60353;DHT22;46196;52.970;6.954;2023-03-21T17:06:20;12.40;99.90
60353;DHT22;46196;52.970;6.954;2023-03-21T17:08:47;12.40;99.90
60353;DHT22;46196;52.970;6.954;2023-03-21T17:11:15;12.40;99.90
60353;DHT22;46196;52.970;6.954;2023-03-21T17:13:43;12.30;99.90
60353;DHT22;46196;52.970;6.954;2023-03-21T17:16:13;11.80;99.90
60353;DHT22;46196;52.970;6.954;2023-03-21T17:18:40;12.30;99.90
60353;DHT22;46196;52.970;6.954;2023-03-21T17:23:39;12.20;99.90
60353;DHT22;46196;52.970;6.954;2023-03-21T17:26:05;12.10;99.90
60353;DHT22;46196;52.970;6.954;2023-03-21T17:28:34;12.00;99.90
60353;DHT22;46196;52.970;6.954;2023-03-21T17:31:00;11.90;99.90
60353;DHT22;46196;52.970;6.954;2023-03-21T17:33:26;11.80;99.90
60353;DHT22;46196;52.970;6.954;2023-03-21T17:35:52;11.70;99.90
60353;DHT22;46196;52.970;6.954;2023-03-21T17:38:17;11.60;99.90
60353;DHT22;46196;52.970;6.954;2023-03-21T17:40:43;11.60;99.90
60353;DHT22;46196;52.970;6.954;2023-03-21T17:43:17;11.50;99.90
60353;DHT22;46196;52.970;6.954;2023-03-21T17:45:43;11.40;99.90